SKW4958 KORD-KLEX
Flight info
| Callsign | SKW4958 |
|---|---|
| Flight time | 1h 6m |
| Altitude | 23000 |
| Route | KORD EARND ELANR EMMLY ERECO IIU BUSSN KLEX |
| Aircraft | CRJ7/M-SDE2E3FGIRW/LB1 |
Departure
| Time | 2026-05-01 14:26 |
|---|---|
| Airport | Chicago O'Hare International Airport (KORD) |
Arrival
| Time | 2026-05-01 15:32 |
|---|---|
| Airport | Blue Grass Airport (KLEX) |
| Time | Latitude | Longitude | Altitude | Speed | Heading |
|---|---|---|---|---|---|
| 2026-05-01 14:12 | 41.97576 | -87.89989 | 660 ft | 0 kts | 207° |
| 2026-05-01 14:17 | 41.97572 | -87.89988 | 660 ft | 1 kts | 152° |
| 2026-05-01 14:17 | 41.97572 | -87.89978 | 660 ft | 4 kts | 40° |
| 2026-05-01 14:17 | 41.97592 | -87.89969 | 660 ft | 3 kts | 14° |
| 2026-05-01 14:18 | 41.97602 | -87.89966 | 660 ft | 0 kts | 19° |
| 2026-05-01 14:18 | 41.97606 | -87.89963 | 660 ft | 1 kts | 32° |
| 2026-05-01 14:18 | 41.97613 | -87.89945 | 660 ft | 3 kts | 89° |
| 2026-05-01 14:18 | 41.97608 | -87.89918 | 660 ft | 5 kts | 112° |
| 2026-05-01 14:19 | 41.97586 | -87.89855 | 659 ft | 0 kts | 114° |
| 2026-05-01 14:19 | 41.97584 | -87.89847 | 659 ft | 3 kts | 105° |
| 2026-05-01 14:19 | 41.97581 | -87.89829 | 659 ft | 0 kts | 104° |
| 2026-05-01 14:20 | 41.97579 | -87.89820 | 659 ft | 3 kts | 104° |
| 2026-05-01 14:21 | 41.97568 | -87.89768 | 658 ft | 8 kts | 109° |
| 2026-05-01 14:21 | 41.97539 | -87.89676 | 657 ft | 13 kts | 114° |
| 2026-05-01 14:21 | 41.97500 | -87.89546 | 656 ft | 17 kts | 110° |
| 2026-05-01 14:22 | 41.97287 | -87.89432 | 660 ft | 20 kts | 181° |
| 2026-05-01 14:22 | 41.97155 | -87.89438 | 665 ft | 19 kts | 182° |
| 2026-05-01 14:22 | 41.97047 | -87.89405 | 664 ft | 11 kts | 116° |
| 2026-05-01 14:22 | 41.97044 | -87.89307 | 662 ft | 13 kts | 89° |
| 2026-05-01 14:23 | 41.97044 | -87.89162 | 660 ft | 18 kts | 90° |
| 2026-05-01 14:23 | 41.97045 | -87.88968 | 656 ft | 23 kts | 89° |
| 2026-05-01 14:23 | 41.97045 | -87.88734 | 655 ft | 27 kts | 90° |
| 2026-05-01 14:23 | 41.97045 | -87.88535 | 656 ft | 17 kts | 89° |
| 2026-05-01 14:24 | 41.97039 | -87.88447 | 656 ft | 4 kts | 126° |
| 2026-05-01 14:24 | 41.96998 | -87.88442 | 656 ft | 11 kts | 188° |
| 2026-05-01 14:24 | 41.96941 | -87.88445 | 656 ft | 0 kts | 180° |
| 2026-05-01 14:24 | 41.96936 | -87.88445 | 656 ft | 1 kts | 180° |
| 2026-05-01 14:25 | 41.96908 | -87.88457 | 656 ft | 1 kts | 253° |
| 2026-05-01 14:25 | 41.96909 | -87.88550 | 656 ft | 38 kts | 270° |
| 2026-05-01 14:25 | 41.96908 | -87.89268 | 661 ft | 112 kts | 270° |
| 2026-05-01 14:25 | 41.96894 | -87.90554 | 818 ft | 154 kts | 271° |
| 2026-05-01 14:26 | 41.96715 | -87.91974 | 1653 ft | 156 kts | 250° |
| 2026-05-01 14:26 | 41.94727 | -87.93609 | 2994 ft | 196 kts | 178° |
| 2026-05-01 14:26 | 41.93440 | -87.92975 | 3670 ft | 211 kts | 146° |
| 2026-05-01 14:27 | 41.92072 | -87.91820 | 4137 ft | 239 kts | 148° |
| 2026-05-01 14:27 | 41.90724 | -87.90779 | 5777 ft | 206 kts | 151° |
| 2026-05-01 14:27 | 41.89486 | -87.89966 | 7017 ft | 191 kts | 160° |
| 2026-05-01 14:28 | 41.87008 | -87.88678 | 8281 ft | 211 kts | 158° |
| 2026-05-01 14:28 | 41.85598 | -87.87815 | 8719 ft | 235 kts | 155° |
| 2026-05-01 14:28 | 41.84068 | -87.86734 | 9166 ft | 260 kts | 152° |
| 2026-05-01 14:28 | 41.82451 | -87.85527 | 9935 ft | 265 kts | 152° |
| 2026-05-01 14:29 | 41.80861 | -87.84334 | 10970 ft | 258 kts | 153° |
| 2026-05-01 14:29 | 41.79311 | -87.83202 | 12013 ft | 249 kts | 154° |
| 2026-05-01 14:30 | 41.75029 | -87.80178 | 14654 ft | 223 kts | 157° |
| 2026-05-01 14:30 | 41.73630 | -87.79197 | 15063 ft | 233 kts | 157° |
| 2026-05-01 14:30 | 41.72158 | -87.78158 | 15436 ft | 245 kts | 157° |
| 2026-05-01 14:31 | 41.69000 | -87.75911 | 16242 ft | 269 kts | 156° |
| 2026-05-01 14:31 | 41.67319 | -87.74714 | 16675 ft | 280 kts | 156° |
| 2026-05-01 14:31 | 41.65560 | -87.73468 | 17119 ft | 291 kts | 156° |
| 2026-05-01 14:31 | 41.63734 | -87.72174 | 17562 ft | 303 kts | 156° |
| 2026-05-01 14:32 | 41.61834 | -87.70827 | 18018 ft | 314 kts | 156° |
| 2026-05-01 14:32 | 41.59893 | -87.69454 | 18451 ft | 325 kts | 156° |
| 2026-05-01 14:32 | 41.57859 | -87.68013 | 18852 ft | 336 kts | 156° |
| 2026-05-01 14:32 | 41.55753 | -87.66526 | 19244 ft | 347 kts | 156° |
| 2026-05-01 14:33 | 41.53588 | -87.64996 | 19611 ft | 358 kts | 156° |
| 2026-05-01 14:33 | 41.51358 | -87.63416 | 20011 ft | 368 kts | 156° |
| 2026-05-01 14:33 | 41.49062 | -87.61796 | 20399 ft | 377 kts | 156° |
| 2026-05-01 14:33 | 41.46713 | -87.60146 | 20803 ft | 386 kts | 156° |
| 2026-05-01 14:34 | 41.44307 | -87.58454 | 21211 ft | 394 kts | 156° |
| 2026-05-01 14:34 | 41.41777 | -87.57061 | 21631 ft | 394 kts | 171° |
| 2026-05-01 14:34 | 41.39111 | -87.56400 | 22037 ft | 396 kts | 178° |
| 2026-05-01 14:34 | 41.36352 | -87.56011 | 22458 ft | 401 kts | 180° |
| 2026-05-01 14:35 | 41.33555 | -87.55654 | 22821 ft | 408 kts | 180° |
| 2026-05-01 14:35 | 41.30681 | -87.55248 | 22975 ft | 421 kts | 179° |
| 2026-05-01 14:35 | 41.27727 | -87.54742 | 23048 ft | 435 kts | 178° |
| 2026-05-01 14:35 | 41.24700 | -87.54213 | 23075 ft | 441 kts | 178° |
| 2026-05-01 14:36 | 41.21649 | -87.53676 | 23082 ft | 443 kts | 178° |
| 2026-05-01 14:36 | 41.18583 | -87.53038 | 23082 ft | 446 kts | 175° |
| 2026-05-01 14:36 | 41.15531 | -87.52222 | 23088 ft | 449 kts | 173° |
| 2026-05-01 14:36 | 41.12475 | -87.51329 | 23087 ft | 450 kts | 172° |
| 2026-05-01 14:37 | 41.09408 | -87.50438 | 23062 ft | 452 kts | 173° |
| 2026-05-01 14:37 | 41.06331 | -87.49583 | 23069 ft | 452 kts | 174° |
| 2026-05-01 14:37 | 41.03240 | -87.48768 | 23073 ft | 453 kts | 174° |
| 2026-05-01 14:37 | 41.00145 | -87.47939 | 23070 ft | 454 kts | 174° |
| 2026-05-01 14:38 | 40.97083 | -87.47115 | 23066 ft | 455 kts | 174° |
| 2026-05-01 14:38 | 40.93974 | -87.46290 | 23063 ft | 456 kts | 174° |
| 2026-05-01 14:38 | 40.90855 | -87.45457 | 23061 ft | 457 kts | 174° |
| 2026-05-01 14:38 | 40.87737 | -87.44620 | 23032 ft | 458 kts | 174° |
| 2026-05-01 14:39 | 40.84609 | -87.43794 | 23050 ft | 459 kts | 174° |
| 2026-05-01 14:39 | 40.81467 | -87.42958 | 23053 ft | 460 kts | 174° |
| 2026-05-01 14:39 | 40.78330 | -87.42121 | 23056 ft | 461 kts | 174° |
| 2026-05-01 14:39 | 40.75178 | -87.41286 | 23059 ft | 461 kts | 174° |
| 2026-05-01 14:40 | 40.72031 | -87.40451 | 23063 ft | 462 kts | 174° |
| 2026-05-01 14:40 | 40.68873 | -87.39612 | 23054 ft | 463 kts | 174° |
| 2026-05-01 14:40 | 40.65715 | -87.38776 | 23062 ft | 463 kts | 174° |
| 2026-05-01 14:40 | 40.62545 | -87.37941 | 23053 ft | 464 kts | 174° |
| 2026-05-01 14:41 | 40.59371 | -87.37099 | 23044 ft | 465 kts | 174° |
| 2026-05-01 14:41 | 40.56193 | -87.36260 | 23058 ft | 466 kts | 174° |
| 2026-05-01 14:41 | 40.53016 | -87.35423 | 23042 ft | 466 kts | 174° |
| 2026-05-01 14:41 | 40.49833 | -87.34581 | 23047 ft | 466 kts | 174° |
| 2026-05-01 14:42 | 40.46647 | -87.33743 | 23048 ft | 467 kts | 174° |
| 2026-05-01 14:42 | 40.43514 | -87.32797 | 23028 ft | 471 kts | 170° |
| 2026-05-01 14:42 | 40.40389 | -87.31416 | 23048 ft | 475 kts | 165° |
| 2026-05-01 14:42 | 40.37301 | -87.29854 | 23054 ft | 476 kts | 165° |
| 2026-05-01 14:43 | 40.34213 | -87.28286 | 23059 ft | 476 kts | 165° |
| 2026-05-01 14:43 | 40.31107 | -87.26779 | 23060 ft | 475 kts | 166° |
| 2026-05-01 14:43 | 40.27992 | -87.25334 | 23060 ft | 475 kts | 166° |
| 2026-05-01 14:43 | 40.24873 | -87.23873 | 23053 ft | 476 kts | 166° |
| 2026-05-01 14:44 | 40.21754 | -87.22414 | 23020 ft | 476 kts | 167° |
| 2026-05-01 14:44 | 40.15518 | -87.19513 | 23040 ft | 476 kts | 167° |
| 2026-05-01 14:44 | 40.12389 | -87.18049 | 23038 ft | 476 kts | 167° |
| 2026-05-01 14:45 | 40.09270 | -87.16597 | 23039 ft | 476 kts | 167° |
| 2026-05-01 14:45 | 40.03162 | -87.13753 | 23054 ft | 443 kts | 167° |
| 2026-05-01 14:45 | 40.00326 | -87.12439 | 23049 ft | 420 kts | 168° |
| 2026-05-01 14:46 | 39.97666 | -87.11013 | 22774 ft | 414 kts | 161° |
| 2026-05-01 14:46 | 39.92800 | -87.07032 | 21728 ft | 414 kts | 152° |
| 2026-05-01 14:46 | 39.90431 | -87.04893 | 21013 ft | 413 kts | 152° |
| 2026-05-01 14:47 | 39.88261 | -87.02917 | 22236 ft | 336 kts | 153° |
| 2026-05-01 14:47 | 39.86371 | -87.01162 | 21818 ft | 336 kts | 155° |
| 2026-05-01 14:47 | 39.84358 | -86.99569 | 20842 ft | 344 kts | 158° |
| 2026-05-01 14:48 | 39.80058 | -86.96249 | 18658 ft | 371 kts | 153° |
| 2026-05-01 14:48 | 39.77865 | -86.94398 | 17532 ft | 379 kts | 151° |
| 2026-05-01 14:48 | 39.73436 | -86.90591 | 15661 ft | 376 kts | 152° |
| 2026-05-01 14:49 | 39.69296 | -86.87065 | 15184 ft | 338 kts | 152° |
| 2026-05-01 14:49 | 39.65598 | -86.83931 | 15041 ft | 297 kts | 153° |
| 2026-05-01 14:50 | 39.63192 | -86.81953 | 13661 ft | 320 kts | 152° |
| 2026-05-01 14:50 | 39.57892 | -86.77619 | 10821 ft | 346 kts | 149° |
| 2026-05-01 14:51 | 39.55910 | -86.75951 | 10422 ft | 332 kts | 149° |
| 2026-05-01 14:51 | 39.52208 | -86.72866 | 10112 ft | 313 kts | 149° |
| 2026-05-01 14:52 | 39.49103 | -86.70293 | 10058 ft | 323 kts | 149° |
| 2026-05-01 14:52 | 39.47200 | -86.68712 | 10055 ft | 327 kts | 149° |
| 2026-05-01 14:52 | 39.43315 | -86.65493 | 10046 ft | 334 kts | 149° |
| 2026-05-01 14:53 | 39.41348 | -86.63863 | 10041 ft | 337 kts | 149° |
| 2026-05-01 14:53 | 39.39368 | -86.62221 | 10036 ft | 339 kts | 149° |
| 2026-05-01 14:53 | 39.37375 | -86.60574 | 10034 ft | 342 kts | 149° |
| 2026-05-01 14:53 | 39.35366 | -86.58916 | 10038 ft | 343 kts | 149° |
| 2026-05-01 14:54 | 39.33349 | -86.57247 | 10036 ft | 345 kts | 149° |
| 2026-05-01 14:54 | 39.31324 | -86.55571 | 10033 ft | 346 kts | 150° |
| 2026-05-01 14:54 | 39.29301 | -86.53873 | 10020 ft | 347 kts | 150° |
| 2026-05-01 14:54 | 39.27281 | -86.52162 | 10029 ft | 347 kts | 150° |
| 2026-05-01 14:55 | 39.25245 | -86.50471 | 10031 ft | 348 kts | 151° |
| 2026-05-01 14:55 | 39.23234 | -86.48812 | 10038 ft | 348 kts | 151° |
| 2026-05-01 14:55 | 39.21185 | -86.47127 | 10037 ft | 349 kts | 151° |
| 2026-05-01 14:55 | 39.19144 | -86.45447 | 10029 ft | 349 kts | 151° |
| 2026-05-01 14:56 | 39.17096 | -86.43767 | 10023 ft | 349 kts | 151° |
| 2026-05-01 14:56 | 39.15042 | -86.42087 | 10023 ft | 349 kts | 151° |
| 2026-05-01 14:56 | 39.12994 | -86.40406 | 10019 ft | 349 kts | 151° |
| 2026-05-01 14:56 | 39.10948 | -86.38725 | 10020 ft | 349 kts | 151° |
| 2026-05-01 14:57 | 39.08892 | -86.37056 | 10025 ft | 349 kts | 152° |
| 2026-05-01 14:57 | 39.04781 | -86.33725 | 10005 ft | 349 kts | 152° |
| 2026-05-01 14:57 | 39.02730 | -86.32046 | 10020 ft | 349 kts | 152° |
| 2026-05-01 14:58 | 39.00675 | -86.30387 | 10026 ft | 349 kts | 153° |
| 2026-05-01 14:58 | 38.98624 | -86.28717 | 10018 ft | 349 kts | 152° |
| 2026-05-01 14:58 | 38.96574 | -86.27041 | 10020 ft | 349 kts | 152° |
| 2026-05-01 14:58 | 38.94522 | -86.25367 | 10021 ft | 349 kts | 152° |
| 2026-05-01 14:59 | 38.92475 | -86.23702 | 10010 ft | 349 kts | 153° |
| 2026-05-01 14:59 | 38.90418 | -86.22035 | 10004 ft | 349 kts | 152° |
| 2026-05-01 14:59 | 38.88363 | -86.20365 | 10007 ft | 349 kts | 152° |
| 2026-05-01 14:59 | 38.86307 | -86.18694 | 10006 ft | 353 kts | 152° |
| 2026-05-01 15:00 | 38.82094 | -86.15248 | 9994 ft | 368 kts | 154° |
| 2026-05-01 15:00 | 38.79918 | -86.13459 | 10006 ft | 375 kts | 154° |
| 2026-05-01 15:00 | 38.77697 | -86.11659 | 10015 ft | 380 kts | 154° |
| 2026-05-01 15:01 | 38.75457 | -86.09836 | 10014 ft | 383 kts | 154° |
| 2026-05-01 15:01 | 38.73234 | -86.08040 | 10004 ft | 371 kts | 155° |
| 2026-05-01 15:01 | 38.71079 | -86.06296 | 10005 ft | 362 kts | 154° |
| 2026-05-01 15:01 | 38.68979 | -86.04595 | 9983 ft | 354 kts | 155° |
| 2026-05-01 15:02 | 38.66913 | -86.02921 | 9980 ft | 347 kts | 155° |
| 2026-05-01 15:02 | 38.65564 | -86.01841 | 9992 ft | 342 kts | 155° |
| 2026-05-01 15:02 | 38.62882 | -85.99729 | 10050 ft | 336 kts | 155° |
| 2026-05-01 15:02 | 38.60898 | -85.98153 | 10037 ft | 333 kts | 155° |
| 2026-05-01 15:03 | 38.58941 | -85.96592 | 10017 ft | 331 kts | 155° |
| 2026-05-01 15:03 | 38.57003 | -85.95030 | 9993 ft | 328 kts | 155° |
| 2026-05-01 15:03 | 38.55085 | -85.93476 | 9998 ft | 325 kts | 155° |
| 2026-05-01 15:03 | 38.53179 | -85.91936 | 9999 ft | 323 kts | 155° |
| 2026-05-01 15:04 | 38.51285 | -85.90408 | 10005 ft | 321 kts | 155° |
| 2026-05-01 15:04 | 38.49396 | -85.88897 | 10005 ft | 319 kts | 155° |
| 2026-05-01 15:04 | 38.47521 | -85.87390 | 10013 ft | 318 kts | 155° |
| 2026-05-01 15:04 | 38.45649 | -85.85892 | 10020 ft | 317 kts | 155° |
| 2026-05-01 15:05 | 38.43781 | -85.84404 | 10022 ft | 316 kts | 155° |
| 2026-05-01 15:05 | 38.41937 | -85.82937 | 10019 ft | 316 kts | 156° |
| 2026-05-01 15:05 | 38.40074 | -85.81445 | 10007 ft | 315 kts | 155° |
| 2026-05-01 15:05 | 38.38217 | -85.79952 | 10010 ft | 315 kts | 155° |
| 2026-05-01 15:06 | 38.36371 | -85.78472 | 10013 ft | 314 kts | 155° |
| 2026-05-01 15:06 | 38.34523 | -85.76998 | 10028 ft | 313 kts | 156° |
| 2026-05-01 15:06 | 38.32692 | -85.75538 | 10012 ft | 304 kts | 156° |
| 2026-05-01 15:06 | 38.30892 | -85.74102 | 9338 ft | 310 kts | 155° |
| 2026-05-01 15:07 | 38.29041 | -85.72665 | 8567 ft | 318 kts | 155° |
| 2026-05-01 15:07 | 38.27143 | -85.71173 | 7818 ft | 324 kts | 154° |
| 2026-05-01 15:07 | 38.25214 | -85.69640 | 7382 ft | 318 kts | 153° |
| 2026-05-01 15:07 | 38.23376 | -85.68168 | 7196 ft | 305 kts | 153° |
| 2026-05-01 15:08 | 38.21642 | -85.66783 | 7107 ft | 291 kts | 154° |
| 2026-05-01 15:08 | 38.19965 | -85.65451 | 7061 ft | 281 kts | 154° |
| 2026-05-01 15:08 | 38.18296 | -85.64138 | 7045 ft | 282 kts | 154° |
| 2026-05-01 15:08 | 38.16635 | -85.62822 | 7027 ft | 281 kts | 154° |
| 2026-05-01 15:09 | 38.14973 | -85.61515 | 7024 ft | 280 kts | 154° |
| 2026-05-01 15:09 | 38.13320 | -85.60204 | 7021 ft | 280 kts | 153° |
| 2026-05-01 15:09 | 38.11907 | -85.58481 | 7020 ft | 289 kts | 126° |
| 2026-05-01 15:09 | 38.11196 | -85.56081 | 7023 ft | 293 kts | 103° |
| 2026-05-01 15:10 | 38.10933 | -85.53519 | 7023 ft | 293 kts | 94° |
| 2026-05-01 15:10 | 38.11377 | -85.48392 | 7021 ft | 293 kts | 77° |
| 2026-05-01 15:10 | 38.11791 | -85.45867 | 7021 ft | 293 kts | 77° |
| 2026-05-01 15:11 | 38.12186 | -85.43319 | 7023 ft | 293 kts | 79° |
| 2026-05-01 15:11 | 38.12801 | -85.38205 | 7019 ft | 293 kts | 82° |
| 2026-05-01 15:11 | 38.13091 | -85.35634 | 7021 ft | 293 kts | 82° |
| 2026-05-01 15:12 | 38.13391 | -85.33106 | 7043 ft | 291 kts | 81° |
| 2026-05-01 15:12 | 38.14017 | -85.27995 | 5999 ft | 305 kts | 81° |
| 2026-05-01 15:12 | 38.14355 | -85.25312 | 5439 ft | 306 kts | 80° |
| 2026-05-01 15:13 | 38.15289 | -85.17744 | 5043 ft | 269 kts | 80° |
| 2026-05-01 15:14 | 38.15828 | -85.13273 | 4995 ft | 247 kts | 80° |
| 2026-05-01 15:14 | 38.16082 | -85.11130 | 4990 ft | 244 kts | 80° |
| 2026-05-01 15:14 | 38.16622 | -85.06742 | 5005 ft | 262 kts | 80° |
| 2026-05-01 15:15 | 38.17200 | -85.02021 | 5024 ft | 281 kts | 81° |
| 2026-05-01 15:15 | 38.17827 | -84.96959 | 5049 ft | 298 kts | 81° |
| 2026-05-01 15:16 | 38.18417 | -84.91623 | 5040 ft | 311 kts | 90° |
| 2026-05-01 15:16 | 38.16951 | -84.86538 | 5050 ft | 313 kts | 126° |
| 2026-05-01 15:17 | 38.14446 | -84.81931 | 5028 ft | 320 kts | 128° |
| 2026-05-01 15:18 | 38.10874 | -84.75190 | 4984 ft | 281 kts | 126° |
| 2026-05-01 15:18 | 38.09840 | -84.73160 | 4958 ft | 267 kts | 126° |
| 2026-05-01 15:19 | 38.06804 | -84.67151 | 3431 ft | 283 kts | 126° |
| 2026-05-01 15:19 | 38.04740 | -84.63089 | 3123 ft | 263 kts | 126° |
| 2026-05-01 15:19 | 38.03777 | -84.61174 | 3089 ft | 251 kts | 126° |
| 2026-05-01 15:20 | 38.01968 | -84.57617 | 3036 ft | 228 kts | 127° |
| 2026-05-01 15:20 | 38.01127 | -84.55971 | 2994 ft | 217 kts | 127° |
| 2026-05-01 15:20 | 38.00328 | -84.54413 | 2981 ft | 204 kts | 127° |
| 2026-05-01 15:21 | 37.99580 | -84.52943 | 2993 ft | 191 kts | 130° |
| 2026-05-01 15:21 | 37.98856 | -84.51567 | 3034 ft | 181 kts | 130° |
| 2026-05-01 15:21 | 37.98201 | -84.50289 | 3007 ft | 165 kts | 130° |
| 2026-05-01 15:21 | 37.97572 | -84.49041 | 3003 ft | 173 kts | 123° |
| 2026-05-01 15:22 | 37.98043 | -84.46292 | 3003 ft | 174 kts | 28° |
| 2026-05-01 15:22 | 37.99141 | -84.45872 | 3086 ft | 161 kts | 351° |
| 2026-05-01 15:22 | 38.00207 | -84.45924 | 3065 ft | 155 kts | 349° |
| 2026-05-01 15:23 | 38.01256 | -84.45940 | 3058 ft | 153 kts | 352° |
| 2026-05-01 15:23 | 38.02370 | -84.45889 | 2983 ft | 174 kts | 356° |
| 2026-05-01 15:23 | 38.03661 | -84.45681 | 2814 ft | 201 kts | 4° |
| 2026-05-01 15:23 | 38.04999 | -84.45361 | 2721 ft | 186 kts | 7° |
| 2026-05-01 15:24 | 38.06186 | -84.45013 | 2647 ft | 168 kts | 6° |
| 2026-05-01 15:24 | 38.07256 | -84.44719 | 2612 ft | 146 kts | 3° |
| 2026-05-01 15:24 | 38.08200 | -84.44502 | 2517 ft | 141 kts | 3° |
| 2026-05-01 15:24 | 38.09192 | -84.44266 | 2533 ft | 149 kts | 2° |
| 2026-05-01 15:25 | 38.10350 | -84.43998 | 2647 ft | 182 kts | 4° |
| 2026-05-01 15:25 | 38.11590 | -84.43717 | 2691 ft | 182 kts | 3° |
| 2026-05-01 15:25 | 38.12855 | -84.43440 | 2716 ft | 187 kts | 3° |
| 2026-05-01 15:25 | 38.14058 | -84.43155 | 2634 ft | 162 kts | 4° |
| 2026-05-01 15:26 | 38.15222 | -84.42882 | 2669 ft | 172 kts | 4° |
| 2026-05-01 15:26 | 38.16328 | -84.42612 | 2634 ft | 160 kts | 4° |
| 2026-05-01 15:26 | 38.17437 | -84.42427 | 2576 ft | 158 kts | 346° |
| 2026-05-01 15:26 | 38.18276 | -84.43052 | 2549 ft | 132 kts | 294° |
| 2026-05-01 15:27 | 38.18253 | -84.44180 | 2606 ft | 149 kts | 241° |
| 2026-05-01 15:27 | 38.17534 | -84.45141 | 2645 ft | 138 kts | 226° |
| 2026-05-01 15:27 | 38.16875 | -84.45849 | 2576 ft | 111 kts | 224° |
| 2026-05-01 15:28 | 38.15447 | -84.47373 | 2657 ft | 140 kts | 223° |
| 2026-05-01 15:28 | 38.14633 | -84.48240 | 2711 ft | 160 kts | 226° |
| 2026-05-01 15:28 | 38.13925 | -84.49141 | 2700 ft | 134 kts | 228° |
| 2026-05-01 15:29 | 38.12709 | -84.50531 | 2635 ft | 106 kts | 226° |
| 2026-05-01 15:29 | 38.12133 | -84.51060 | 2251 ft | 116 kts | 217° |
| 2026-05-01 15:29 | 38.10864 | -84.52259 | 1964 ft | 126 kts | 221° |
| 2026-05-01 15:30 | 38.09878 | -84.53301 | 1833 ft | 112 kts | 227° |
| 2026-05-01 15:31 | 38.07293 | -84.56365 | 1790 ft | 131 kts | 227° |
| 2026-05-01 15:31 | 38.06108 | -84.57760 | 1579 ft | 113 kts | 223° |
| 2026-05-01 15:32 | 38.04952 | -84.59053 | 1253 ft | 112 kts | 224° |
| 2026-05-01 15:32 | 38.04296 | -84.59660 | 956 ft | 39 kts | 186° |
| 2026-05-01 15:33 | 38.03672 | -84.60508 | 945 ft | 13 kts | 220° |
| 2026-05-01 15:34 | 38.03587 | -84.60453 | 944 ft | 16 kts | 47° |